createdAt,value
2022-08-04T00:02:08.770Z,1.30
2022-08-04T00:04:43.824Z,1.40
2022-08-04T00:07:18.057Z,1.43
2022-08-04T00:09:53.253Z,1.40
2022-08-04T00:12:29.413Z,1.30
2022-08-04T00:15:00.988Z,1.40
2022-08-04T00:17:33.289Z,1.47
2022-08-04T00:20:04.736Z,1.50
2022-08-04T00:22:36.325Z,1.40
2022-08-04T00:25:06.147Z,1.57
2022-08-04T00:27:36.342Z,1.60
2022-08-04T00:30:06.593Z,1.73
2022-08-04T00:32:35.079Z,1.90
2022-08-04T00:35:03.414Z,1.70
2022-08-04T00:37:31.740Z,1.57
2022-08-04T00:40:02.325Z,1.40
2022-08-04T00:42:58.386Z,1.60
2022-08-04T00:46:10.742Z,1.57
2022-08-04T00:48:57.491Z,1.67
2022-08-04T00:51:38.603Z,1.60
2022-08-04T00:54:13.292Z,1.40
2022-08-04T00:56:58.646Z,1.60
2022-08-04T00:59:44.614Z,1.70
2022-08-04T01:02:23.947Z,1.73
2022-08-04T01:05:03.657Z,1.50
2022-08-04T01:08:16.440Z,1.70
2022-08-04T01:10:58.920Z,1.70
2022-08-04T01:14:11.957Z,1.80
2022-08-04T01:16:49.907Z,1.60
2022-08-04T01:19:41.606Z,1.70
2022-08-04T01:22:24.127Z,2.00
2022-08-04T01:25:24.816Z,1.80
2022-08-04T01:28:13.654Z,1.63
2022-08-04T01:30:45.595Z,1.30
2022-08-04T01:33:15.495Z,1.60
2022-08-04T01:35:49.448Z,1.33
2022-08-04T01:38:25.473Z,1.57
2022-08-04T01:40:54.808Z,1.57
2022-08-04T01:43:23.376Z,1.70
2022-08-04T01:45:59.302Z,1.50
2022-08-04T01:48:28.571Z,1.40
2022-08-04T01:50:59.545Z,1.40
2022-08-04T01:53:32.845Z,1.47
2022-08-04T01:56:02.825Z,1.47
2022-08-04T01:58:33.179Z,1.50
2022-08-04T02:01:08.330Z,1.70
2022-08-04T02:04:19.786Z,1.60
2022-08-04T02:06:33.372Z,1.50
2022-08-04T02:09:12.228Z,1.53
2022-08-04T02:11:43.621Z,1.60
2022-08-04T02:14:40.056Z,1.60
2022-08-04T02:17:13.496Z,1.70
2022-08-04T02:20:09.415Z,1.60
2022-08-04T02:22:45.471Z,1.43
2022-08-04T02:25:16.209Z,1.33
2022-08-04T02:27:59.870Z,1.70
2022-08-04T02:30:34.187Z,1.90
2022-08-04T02:33:06.644Z,1.60
2022-08-04T02:35:39.391Z,1.50
2022-08-04T02:38:17.584Z,1.53
2022-08-04T02:40:58.849Z,1.53
2022-08-04T02:43:50.795Z,1.53
2022-08-04T02:46:19.679Z,1.53
2022-08-04T02:48:50.853Z,1.57
2022-08-04T02:51:23.110Z,1.40
2022-08-04T02:53:53.439Z,1.50
2022-08-04T02:56:22.585Z,1.50
2022-08-04T02:58:54.435Z,1.63
2022-08-04T03:01:24.351Z,1.47
2022-08-04T03:04:03.924Z,1.67
2022-08-04T03:07:05.144Z,1.70
2022-08-04T03:10:04.873Z,1.80
2022-08-04T03:13:15.562Z,1.70
2022-08-04T03:16:00.889Z,1.60
2022-08-04T03:19:23.645Z,1.60
2022-08-04T03:22:11.957Z,1.67
2022-08-04T03:25:10.636Z,1.50
2022-08-04T03:28:16.387Z,1.60
2022-08-04T03:31:00.462Z,1.80
2022-08-04T03:34:07.671Z,1.40
2022-08-04T03:37:12.781Z,1.70
2022-08-04T03:40:24.094Z,1.70
2022-08-04T03:43:59.263Z,1.70
2022-08-04T03:46:56.529Z,1.67
2022-08-04T03:50:14.035Z,1.60
2022-08-04T03:53:25.832Z,1.77
2022-08-04T03:56:26.599Z,2.00
2022-08-04T03:59:11.303Z,1.83
2022-08-04T04:02:06.780Z,1.90
2022-08-04T04:04:59.275Z,1.80
2022-08-04T04:08:23.643Z,1.57
2022-08-04T04:11:17.890Z,1.67
2022-08-04T04:14:00.974Z,6.60
2022-08-04T04:16:47.036Z,2.50
2022-08-04T04:19:32.245Z,2.00
2022-08-04T04:22:10.719Z,1.90
2022-08-04T04:25:01.770Z,2.00
2022-08-04T04:27:41.236Z,2.60
2022-08-04T04:30:13.507Z,3.00
2022-08-04T04:33:10.485Z,2.40
2022-08-04T04:35:50.257Z,2.57
2022-08-04T04:38:47.915Z,2.10
2022-08-04T04:41:47.849Z,2.00
2022-08-04T04:44:51.593Z,1.80
2022-08-04T04:47:43.143Z,2.03
2022-08-04T04:50:30.063Z,5.90
2022-08-04T04:53:10.558Z,3.30
2022-08-04T04:55:48.119Z,2.70
2022-08-04T04:58:21.147Z,2.00
2022-08-04T05:01:08.239Z,2.10
2022-08-04T05:04:05.870Z,2.27
2022-08-04T05:06:54.249Z,2.00
2022-08-04T05:09:37.898Z,2.00
2022-08-04T05:14:37.544Z,2.00
2022-08-04T05:15:43.714Z,2.07
2022-08-04T05:18:17.276Z,1.80
2022-08-04T05:20:49.705Z,2.30
2022-08-04T05:23:22.360Z,2.70
2022-08-04T05:25:59.842Z,2.50
2022-08-04T05:28:34.212Z,2.30
2022-08-04T05:31:07.748Z,2.20
2022-08-04T05:33:40.763Z,2.33
2022-08-04T05:36:29.414Z,2.30
2022-08-04T05:39:07.154Z,2.20
2022-08-04T05:41:45.194Z,2.00
2022-08-04T05:44:16.076Z,1.90
2022-08-04T05:46:54.235Z,3.37
2022-08-04T05:49:23.875Z,2.23
2022-08-04T05:51:53.033Z,11.80
2022-08-04T05:54:22.969Z,16.57
2022-08-04T05:56:51.855Z,7.20
2022-08-04T05:59:20.963Z,3.03
2022-08-04T06:01:55.532Z,2.20
2022-08-04T06:04:29.032Z,2.30
2022-08-04T06:06:57.029Z,2.80
2022-08-04T06:09:25.250Z,2.20
2022-08-04T06:12:03.947Z,2.33
2022-08-04T06:14:36.781Z,1.90
2022-08-04T06:18:33.262Z,2.13
2022-08-04T06:20:18.886Z,2.00
2022-08-04T06:22:50.632Z,2.07
2022-08-04T06:25:22.742Z,2.30
2022-08-04T06:27:52.056Z,2.50
2022-08-04T06:30:21.690Z,2.20
2022-08-04T06:33:03.799Z,2.37
2022-08-04T06:35:34.487Z,2.13
2022-08-04T06:38:03.817Z,2.03
2022-08-04T06:40:34.506Z,3.43
2022-08-04T06:43:03.767Z,2.77
2022-08-04T06:45:34.562Z,2.30
2022-08-04T06:48:06.107Z,2.10
2022-08-04T06:51:31.900Z,2.17
2022-08-04T06:53:26.249Z,2.07
2022-08-04T06:55:55.808Z,2.17
2022-08-04T06:58:25.883Z,1.80
2022-08-04T07:00:55.721Z,2.20
2022-08-04T07:03:25.100Z,2.17
2022-08-04T07:05:54.134Z,2.13
2022-08-04T07:08:22.724Z,3.33
2022-08-04T07:10:53.174Z,3.30
2022-08-04T07:13:23.546Z,2.50
2022-08-04T07:15:51.914Z,2.20
2022-08-04T07:18:19.988Z,2.10
2022-08-04T07:20:50.035Z,2.30
2022-08-04T07:23:23.723Z,2.40
2022-08-04T07:25:59.738Z,2.20
2022-08-04T07:28:41.603Z,1.97
2022-08-04T07:31:31.912Z,2.27
2022-08-04T07:34:20.617Z,2.30
2022-08-04T07:36:53.271Z,1.80
2022-08-04T07:39:28.516Z,1.77
2022-08-04T07:41:59.035Z,1.80
2022-08-04T07:44:27.753Z,1.63
2022-08-04T07:46:56.024Z,1.93
2022-08-04T07:49:55.293Z,2.10
2022-08-04T07:52:14.183Z,1.67
2022-08-04T07:54:43.970Z,1.80
2022-08-04T07:57:19.575Z,2.50
2022-08-04T07:59:59.976Z,1.73
2022-08-04T08:02:29.353Z,1.80
2022-08-04T08:04:57.726Z,1.77
2022-08-04T08:07:27.118Z,1.73
2022-08-04T08:09:55.302Z,1.90
2022-08-04T08:12:38.720Z,1.70
2022-08-04T08:15:13.522Z,1.93
2022-08-04T08:17:58.560Z,1.80
2022-08-04T08:20:31.791Z,1.60
2022-08-04T08:23:02.753Z,1.80
2022-08-04T08:25:32.485Z,1.80
2022-08-04T08:28:03.010Z,1.80
2022-08-04T08:30:31.604Z,1.33
2022-08-04T08:33:02.118Z,1.60
2022-08-04T08:35:49.916Z,1.83
2022-08-04T08:38:34.124Z,1.77
2022-08-04T08:41:22.492Z,1.95
2022-08-04T08:44:37.828Z,1.85
2022-08-04T08:47:16.758Z,1.60
2022-08-04T08:50:02.102Z,1.85
2022-08-04T08:53:00.685Z,1.73
2022-08-04T08:55:43.598Z,1.58
2022-08-04T08:58:38.609Z,1.50
2022-08-04T09:01:17.271Z,1.40
2022-08-04T09:04:11.410Z,1.35
2022-08-04T09:07:24.531Z,1.60
2022-08-04T09:10:08.003Z,1.45
2022-08-04T09:12:47.105Z,1.52
2022-08-04T09:15:18.261Z,1.50
2022-08-04T09:17:51.006Z,1.30
2022-08-04T09:20:31.497Z,1.33
2022-08-04T09:23:09.742Z,1.60
2022-08-04T09:25:46.488Z,1.42
2022-08-04T09:28:43.576Z,1.50
2022-08-04T09:31:23.441Z,1.70
2022-08-04T09:34:02.680Z,1.92
2022-08-04T09:36:42.394Z,1.60
2022-08-04T09:39:23.354Z,1.45
2022-08-04T09:42:02.659Z,1.50
2022-08-04T09:44:51.973Z,1.30
2022-08-04T09:47:39.608Z,1.42
2022-08-04T09:50:30.793Z,1.40
2022-08-04T09:53:12.131Z,3.45
2022-08-04T09:55:55.832Z,2.22
2022-08-04T09:58:34.426Z,1.60
2022-08-04T10:01:05.036Z,1.48
2022-08-04T10:03:37.379Z,1.55
2022-08-04T10:06:15.444Z,1.50
2022-08-04T10:09:00.776Z,1.60
2022-08-04T10:11:54.478Z,1.58
2022-08-04T10:14:41.550Z,1.60
2022-08-04T10:17:24.433Z,1.52
2022-08-04T10:20:04.237Z,1.48
2022-08-04T10:22:55.481Z,1.60
2022-08-04T10:26:03.706Z,1.30
2022-08-04T10:28:26.057Z,2.00
2022-08-04T10:31:06.500Z,1.50
2022-08-04T10:33:42.669Z,1.80
2022-08-04T10:36:18.459Z,1.73
2022-08-04T10:38:53.433Z,1.38
2022-08-04T10:41:28.629Z,1.55
2022-08-04T10:44:10.315Z,1.40
2022-08-04T10:46:46.335Z,1.35
2022-08-04T10:49:24.078Z,1.15
2022-08-04T10:52:00.454Z,1.80
2022-08-04T10:54:34.027Z,1.52
2022-08-04T10:57:07.989Z,1.48
2022-08-04T10:59:44.212Z,1.48
2022-08-04T11:02:27.313Z,1.90
2022-08-04T11:05:02.403Z,1.60
2022-08-04T11:07:38.824Z,1.33
2022-08-04T11:10:08.897Z,1.40
2022-08-04T11:12:39.509Z,1.63
2022-08-04T11:15:13.279Z,1.35
2022-08-04T11:17:44.950Z,1.80
2022-08-04T11:20:34.681Z,1.40
2022-08-04T11:23:10.122Z,1.48
2022-08-04T11:25:51.408Z,1.33
2022-08-04T11:28:30.619Z,1.73
2022-08-04T11:31:06.080Z,1.33
2022-08-04T11:33:57.913Z,1.30
2022-08-04T11:36:35.682Z,2.63
2022-08-04T11:39:11.326Z,2.05
2022-08-04T11:41:47.214Z,1.33
2022-08-04T11:44:23.823Z,1.55
2022-08-04T11:46:55.375Z,1.23
2022-08-04T11:49:30.965Z,1.17
2022-08-04T11:52:01.496Z,1.15
2022-08-04T11:54:33.102Z,1.40
2022-08-04T11:57:02.816Z,1.40
2022-08-04T11:59:32.005Z,1.45
2022-08-04T12:02:20.988Z,1.30
2022-08-04T12:04:57.624Z,1.20
2022-08-04T12:07:41.765Z,1.38
2022-08-04T12:10:40.869Z,1.50
2022-08-04T12:13:19.979Z,1.30
2022-08-04T12:16:11.598Z,1.25
2022-08-04T12:18:41.482Z,1.27
2022-08-04T12:21:19.679Z,1.00
2022-08-04T12:23:57.870Z,1.30
2022-08-04T12:26:35.626Z,1.40
2022-08-04T12:29:09.944Z,4.93
2022-08-04T12:31:45.237Z,1.77
2022-08-04T12:34:18.482Z,1.33
2022-08-04T12:36:56.975Z,1.70
2022-08-04T12:39:28.254Z,1.35
2022-08-04T12:42:04.742Z,1.60
2022-08-04T12:44:37.387Z,1.75
2022-08-04T12:47:26.916Z,1.48
2022-08-04T12:50:02.961Z,1.30
2022-08-04T12:52:59.099Z,1.63
2022-08-04T12:55:26.225Z,2.20
2022-08-04T12:57:56.505Z,1.70
2022-08-04T13:00:31.010Z,1.67
2022-08-04T13:03:10.049Z,1.50
2022-08-04T13:05:41.144Z,1.60
2022-08-04T13:08:11.121Z,2.40
2022-08-04T13:10:41.873Z,1.60
2022-08-04T13:13:17.751Z,1.95
2022-08-04T13:15:57.687Z,1.70
2022-08-04T13:18:30.364Z,1.70
2022-08-04T13:21:20.065Z,1.45
2022-08-04T13:24:10.103Z,1.50
2022-08-04T13:26:54.686Z,1.65
2022-08-04T13:29:59.902Z,1.67
2022-08-04T13:32:18.230Z,1.70
2022-08-04T13:34:49.599Z,1.70
2022-08-04T13:37:26.290Z,1.50
2022-08-04T13:39:56.526Z,1.52
2022-08-04T13:42:29.233Z,1.70
2022-08-04T13:45:01.924Z,1.67
2022-08-04T13:47:34.916Z,1.90
2022-08-04T13:50:27.337Z,1.80
2022-08-04T13:52:57.773Z,1.70
2022-08-04T13:55:29.275Z,1.63
2022-08-04T13:58:02.792Z,1.75
2022-08-04T14:00:43.809Z,1.60
2022-08-04T14:03:22.879Z,1.88
2022-08-04T14:06:14.589Z,1.67
2022-08-04T14:08:53.552Z,1.80
2022-08-04T14:12:10.103Z,1.23
2022-08-04T14:14:16.297Z,1.52
2022-08-04T14:16:59.245Z,2.00
2022-08-04T14:19:32.579Z,1.80
2022-08-04T14:22:04.554Z,1.67
2022-08-04T14:24:32.575Z,1.70
2022-08-04T14:27:01.391Z,1.58
2022-08-04T14:29:38.285Z,1.60
2022-08-04T14:32:12.736Z,1.70
2022-08-04T14:34:44.913Z,1.80
2022-08-04T14:37:19.269Z,1.77
2022-08-04T14:40:08.182Z,1.77
2022-08-04T14:42:53.965Z,1.60
2022-08-04T14:45:33.017Z,1.55
2022-08-04T14:48:04.310Z,1.73
2022-08-04T14:50:37.994Z,1.65
2022-08-04T14:53:08.344Z,1.90
2022-08-04T14:55:37.447Z,1.60
2022-08-04T14:58:35.958Z,1.80
2022-08-04T15:00:57.944Z,1.60
2022-08-04T15:03:28.611Z,2.55
2022-08-04T15:06:05.531Z,1.95
2022-08-04T15:08:36.142Z,1.90
2022-08-04T15:11:04.117Z,1.58
2022-08-04T15:13:33.328Z,1.80
2022-08-04T15:16:08.012Z,1.80
2022-08-04T15:18:38.838Z,2.20
2022-08-04T15:21:07.835Z,1.85
2022-08-04T15:23:39.206Z,1.70
2022-08-04T15:26:11.324Z,1.73
2022-08-04T15:28:42.248Z,1.80
2022-08-04T15:32:07.195Z,1.70
2022-08-04T15:34:01.084Z,1.60
2022-08-04T15:36:37.178Z,1.90
2022-08-04T15:39:12.855Z,1.83
2022-08-04T15:41:55.262Z,1.85
2022-08-04T15:45:00.037Z,1.90
2022-08-04T15:47:28.204Z,1.98
2022-08-04T15:50:11.783Z,1.73
2022-08-04T15:53:10.281Z,1.70
2022-08-04T15:55:50.175Z,1.75
2022-08-04T15:58:22.654Z,3.17
2022-08-04T16:01:16.722Z,2.60
2022-08-04T16:03:59.214Z,1.92
2022-08-04T16:06:47.763Z,1.85
2022-08-04T16:09:45.617Z,2.00
2022-08-04T16:12:54.397Z,1.90
2022-08-04T16:15:38.605Z,2.03
2022-08-04T16:18:12.268Z,1.70
2022-08-04T16:20:46.223Z,1.92
2022-08-04T16:23:59.318Z,1.90
2022-08-04T16:26:56.185Z,2.75
2022-08-04T16:29:39.317Z,1.90
2022-08-04T16:32:21.915Z,1.67
2022-08-04T16:34:56.508Z,1.75
2022-08-04T16:37:30.281Z,1.85
2022-08-04T16:40:35.399Z,1.70
2022-08-04T16:43:07.627Z,1.63
2022-08-04T16:45:50.820Z,1.70
2022-08-04T16:48:20.398Z,1.85
2022-08-04T16:50:55.505Z,1.77
2022-08-04T16:53:52.460Z,2.00
2022-08-04T16:56:15.352Z,2.30
2022-08-04T16:58:52.989Z,1.83
2022-08-04T17:01:33.073Z,1.92
2022-08-04T17:04:07.922Z,2.10
2022-08-04T17:06:38.222Z,1.83
2022-08-04T17:09:07.672Z,2.10
2022-08-04T17:11:35.722Z,1.80
2022-08-04T17:14:06.514Z,2.10
2022-08-04T17:16:36.150Z,1.98
2022-08-04T17:19:04.299Z,1.65
2022-08-04T17:21:36.248Z,2.05
2022-08-04T17:24:14.682Z,1.95
2022-08-04T17:29:43.368Z,1.60
2022-08-04T17:32:19.435Z,2.08
2022-08-04T17:34:49.273Z,1.90
2022-08-04T17:37:52.498Z,1.83
2022-08-04T17:40:12.126Z,1.80
2022-08-04T17:48:24.303Z,2.30
2022-08-04T17:50:53.467Z,2.50
2022-08-04T17:54:01.420Z,1.80
2022-08-04T17:56:51.360Z,1.90
2022-08-04T17:59:48.247Z,2.00
2022-08-04T18:02:13.098Z,1.90
2022-08-04T18:05:06.301Z,2.25
2022-08-04T18:08:41.355Z,1.90
2022-08-04T18:10:51.648Z,2.15
2022-08-04T18:13:25.188Z,2.03
2022-08-04T18:16:02.914Z,2.10
2022-08-04T18:18:33.014Z,1.90
2022-08-04T18:21:02.954Z,1.85
2022-08-04T18:23:32.734Z,1.90
2022-08-04T18:26:02.250Z,1.90
2022-08-04T18:28:33.755Z,1.70
2022-08-04T18:31:02.471Z,1.70
2022-08-04T18:33:40.677Z,2.03
2022-08-04T18:36:33.808Z,1.83
2022-08-04T18:39:13.400Z,1.73
2022-08-04T18:41:51.678Z,2.40
2022-08-04T18:44:31.521Z,2.30
2022-08-04T18:47:22.320Z,2.20
2022-08-04T18:50:58.919Z,1.83
2022-08-04T18:55:57.206Z,1.90
2022-08-04T18:58:26.990Z,4.00
2022-08-04T19:01:00.461Z,2.40
2022-08-04T19:06:18.436Z,2.22
2022-08-04T19:08:54.482Z,1.90
2022-08-04T19:11:38.125Z,1.63
2022-08-04T19:14:13.275Z,1.92
2022-08-04T19:16:45.960Z,1.70
2022-08-04T19:19:14.132Z,1.70
2022-08-04T19:22:01.084Z,2.03
2022-08-04T19:24:34.117Z,2.10
2022-08-04T19:27:06.469Z,2.70
2022-08-04T19:29:37.323Z,2.22
2022-08-04T19:32:14.816Z,2.10
2022-08-04T19:34:46.380Z,2.00
2022-08-04T19:37:57.032Z,2.05
2022-08-04T19:40:06.517Z,2.00
2022-08-04T19:42:34.717Z,2.15
2022-08-04T19:45:03.041Z,2.17
2022-08-04T19:48:17.108Z,2.15
2022-08-04T19:50:19.422Z,2.95
2022-08-04T19:52:52.083Z,2.60
2022-08-04T19:55:22.602Z,2.20
2022-08-04T19:57:51.292Z,2.45
2022-08-04T20:00:34.053Z,2.30
2022-08-04T20:03:02.918Z,1.90
2022-08-04T20:05:52.824Z,2.03
2022-08-04T20:08:21.318Z,1.80
2022-08-04T20:10:51.579Z,2.00
2022-08-04T20:13:20.315Z,2.13
2022-08-04T20:15:57.309Z,2.25
2022-08-04T20:18:35.959Z,4.65
2022-08-04T20:21:18.960Z,2.58
2022-08-04T20:23:53.562Z,2.15
2022-08-04T20:26:21.747Z,2.17
2022-08-04T20:28:51.814Z,2.13
2022-08-04T20:31:20.461Z,2.42
2022-08-04T20:33:54.833Z,2.42
2022-08-04T20:36:23.756Z,2.20
2022-08-04T20:38:54.605Z,2.50
2022-08-04T20:41:23.282Z,3.45
2022-08-04T20:43:51.682Z,2.90
2022-08-04T20:46:28.541Z,4.38
2022-08-04T20:48:57.722Z,7.25
2022-08-04T20:51:32.266Z,3.67
2022-08-04T20:54:16.980Z,2.50
2022-08-04T20:56:51.500Z,2.35
2022-08-04T20:59:19.907Z,2.22
2022-08-04T21:01:49.577Z,2.40
2022-08-04T21:04:35.772Z,2.45
2022-08-04T21:07:05.913Z,2.30
2022-08-04T21:09:38.032Z,2.35
2022-08-04T21:12:26.934Z,2.47
2022-08-04T21:14:57.806Z,7.32
2022-08-04T21:17:58.649Z,5.60
2022-08-04T21:20:14.403Z,3.75
2022-08-04T21:22:55.466Z,2.47
2022-08-04T21:25:29.029Z,2.85
2022-08-04T21:27:58.852Z,2.47
2022-08-04T21:30:54.277Z,2.60
2022-08-04T21:33:49.022Z,2.38
2022-08-04T21:36:14.221Z,2.85
2022-08-04T21:38:51.420Z,2.50
2022-08-04T21:41:24.942Z,2.60
2022-08-04T21:43:55.587Z,2.40
2022-08-04T21:46:23.654Z,2.67
2022-08-04T21:48:52.070Z,2.70
2022-08-04T21:51:57.025Z,2.40
2022-08-04T21:54:14.908Z,2.42
2022-08-04T21:56:49.233Z,2.53
2022-08-04T21:59:23.825Z,2.45
2022-08-04T22:02:00.393Z,2.28
2022-08-04T22:04:29.033Z,2.40
2022-08-04T22:06:57.009Z,2.20
2022-08-04T22:09:25.002Z,2.35
2022-08-04T22:11:58.217Z,2.70
2022-08-04T22:14:34.407Z,2.50
2022-08-04T22:17:03.951Z,2.40
2022-08-04T22:19:40.791Z,2.38
2022-08-04T22:28:03.488Z,2.60
2022-08-04T22:30:37.102Z,2.65
2022-08-04T22:33:08.240Z,2.47
2022-08-04T22:35:43.787Z,2.72
2022-08-04T22:38:24.164Z,2.47
2022-08-04T22:41:07.988Z,2.65
2022-08-04T22:43:38.015Z,2.47
2022-08-04T22:46:08.187Z,2.50
2022-08-04T22:48:38.605Z,2.90
2022-08-04T22:51:08.383Z,2.53
2022-08-04T22:53:37.118Z,2.58
2022-08-04T22:56:09.351Z,2.80
2022-08-04T22:58:45.246Z,2.72
2022-08-04T23:01:18.575Z,2.30
2022-08-04T23:03:55.327Z,2.53
2022-08-04T23:06:28.288Z,2.70
2022-08-04T23:08:56.914Z,2.50
2022-08-04T23:11:34.661Z,2.60
2022-08-04T23:14:05.114Z,2.58
2022-08-04T23:16:33.272Z,2.45
2022-08-04T23:19:09.827Z,2.50
2022-08-04T23:21:41.012Z,2.55
2022-08-04T23:24:09.573Z,2.30
2022-08-04T23:26:37.612Z,2.55
2022-08-04T23:29:10.920Z,2.28
2022-08-04T23:31:40.934Z,2.33
2022-08-04T23:34:12.174Z,2.80
2022-08-04T23:36:40.791Z,2.63
2022-08-04T23:39:10.657Z,2.70
2022-08-04T23:41:54.616Z,2.72
2022-08-04T23:44:27.292Z,2.72
2022-08-04T23:47:03.560Z,2.40
2022-08-04T23:49:44.271Z,2.83
2022-08-04T23:52:23.271Z,2.50
2022-08-04T23:54:58.894Z,2.85
2022-08-04T23:57:31.165Z,2.65
